sensor_id;sensor_type;location;lat;lon;timestamp;P1;durP1;ratioP1;P2;durP2;ratioP2
12758;SDS011;20944;47.048;15.390;2023-11-22T00:02:08;6.90;;;4.10;;
12758;SDS011;20944;47.048;15.390;2023-11-22T00:04:36;7.47;;;3.77;;
12758;SDS011;20944;47.048;15.390;2023-11-22T00:07:05;7.40;;;5.30;;
12758;SDS011;20944;47.048;15.390;2023-11-22T00:09:33;11.77;;;5.43;;
12758;SDS011;20944;47.048;15.390;2023-11-22T00:12:02;6.20;;;4.17;;
12758;SDS011;20944;47.048;15.390;2023-11-22T00:14:30;5.50;;;4.37;;
12758;SDS011;20944;47.048;15.390;2023-11-22T00:17:00;7.83;;;3.87;;
12758;SDS011;20944;47.048;15.390;2023-11-22T00:19:29;7.67;;;3.80;;
12758;SDS011;20944;47.048;15.390;2023-11-22T00:21:57;4.37;;;3.33;;
12758;SDS011;20944;47.048;15.390;2023-11-22T00:24:25;12.47;;;3.97;;
12758;SDS011;20944;47.048;15.390;2023-11-22T00:26:53;5.97;;;3.83;;
12758;SDS011;20944;47.048;15.390;2023-11-22T00:29:21;4.47;;;3.20;;
12758;SDS011;20944;47.048;15.390;2023-11-22T00:31:50;5.90;;;3.37;;
12758;SDS011;20944;47.048;15.390;2023-11-22T00:34:19;3.87;;;2.97;;
12758;SDS011;20944;47.048;15.390;2023-11-22T00:36:49;5.63;;;3.63;;
12758;SDS011;20944;47.048;15.390;2023-11-22T00:39:18;5.90;;;4.00;;
12758;SDS011;20944;47.048;15.390;2023-11-22T00:41:47;8.53;;;4.00;;
12758;SDS011;20944;47.048;15.390;2023-11-22T00:44:15;6.53;;;3.47;;
12758;SDS011;20944;47.048;15.390;2023-11-22T00:46:44;5.77;;;3.60;;
12758;SDS011;20944;47.048;15.390;2023-11-22T00:49:13;5.33;;;3.63;;
12758;SDS011;20944;47.048;15.390;2023-11-22T00:51:42;6.80;;;3.13;;
12758;SDS011;20944;47.048;15.390;2023-11-22T00:54:11;6.40;;;3.63;;
12758;SDS011;20944;47.048;15.390;2023-11-22T00:56:39;5.60;;;3.43;;
12758;SDS011;20944;47.048;15.390;2023-11-22T00:59:08;4.60;;;3.43;;
12758;SDS011;20944;47.048;15.390;2023-11-22T01:01:36;6.27;;;3.40;;
12758;SDS011;20944;47.048;15.390;2023-11-22T01:04:04;4.90;;;3.67;;
12758;SDS011;20944;47.048;15.390;2023-11-22T01:06:34;7.27;;;3.50;;
12758;SDS011;20944;47.048;15.390;2023-11-22T01:09:04;8.00;;;4.23;;
12758;SDS011;20944;47.048;15.390;2023-11-22T01:11:35;4.60;;;2.80;;
12758;SDS011;20944;47.048;15.390;2023-11-22T01:14:04;3.67;;;2.50;;
12758;SDS011;20944;47.048;15.390;2023-11-22T01:16:32;5.03;;;2.77;;
12758;SDS011;20944;47.048;15.390;2023-11-22T01:19:03;4.70;;;2.40;;
12758;SDS011;20944;47.048;15.390;2023-11-22T01:21:32;8.13;;;2.87;;
12758;SDS011;20944;47.048;15.390;2023-11-22T01:24:00;3.83;;;2.53;;
12758;SDS011;20944;47.048;15.390;2023-11-22T01:26:29;3.80;;;2.37;;
12758;SDS011;20944;47.048;15.390;2023-11-22T01:28:58;3.63;;;2.50;;
12758;SDS011;20944;47.048;15.390;2023-11-22T01:31:28;3.47;;;2.33;;
12758;SDS011;20944;47.048;15.390;2023-11-22T01:33:57;4.90;;;3.10;;
12758;SDS011;20944;47.048;15.390;2023-11-22T01:36:25;4.53;;;2.63;;
12758;SDS011;20944;47.048;15.390;2023-11-22T01:38:54;4.33;;;2.73;;
12758;SDS011;20944;47.048;15.390;2023-11-22T01:41:23;4.00;;;2.60;;
12758;SDS011;20944;47.048;15.390;2023-11-22T01:43:53;3.10;;;2.40;;
12758;SDS011;20944;47.048;15.390;2023-11-22T01:46:21;5.53;;;2.63;;
12758;SDS011;20944;47.048;15.390;2023-11-22T01:48:52;6.50;;;2.33;;
12758;SDS011;20944;47.048;15.390;2023-11-22T01:51:21;4.57;;;2.40;;
12758;SDS011;20944;47.048;15.390;2023-11-22T01:53:51;2.83;;;2.20;;
12758;SDS011;20944;47.048;15.390;2023-11-22T01:56:21;3.77;;;2.40;;
12758;SDS011;20944;47.048;15.390;2023-11-22T01:58:52;5.43;;;2.50;;
12758;SDS011;20944;47.048;15.390;2023-11-22T02:01:24;3.57;;;2.70;;
12758;SDS011;20944;47.048;15.390;2023-11-22T02:03:53;5.77;;;2.57;;
12758;SDS011;20944;47.048;15.390;2023-11-22T02:06:22;3.13;;;2.43;;
12758;SDS011;20944;47.048;15.390;2023-11-22T02:08:51;4.27;;;2.40;;
12758;SDS011;20944;47.048;15.390;2023-11-22T02:11:19;4.67;;;3.53;;
12758;SDS011;20944;47.048;15.390;2023-11-22T02:13:49;3.77;;;2.63;;
12758;SDS011;20944;47.048;15.390;2023-11-22T02:16:19;3.37;;;2.63;;
12758;SDS011;20944;47.048;15.390;2023-11-22T02:18:48;5.30;;;4.37;;
12758;SDS011;20944;47.048;15.390;2023-11-22T02:21:16;7.83;;;5.03;;
12758;SDS011;20944;47.048;15.390;2023-11-22T02:23:46;5.83;;;3.17;;
12758;SDS011;20944;47.048;15.390;2023-11-22T02:26:15;6.53;;;3.97;;
12758;SDS011;20944;47.048;15.390;2023-11-22T02:28:45;8.13;;;5.00;;
12758;SDS011;20944;47.048;15.390;2023-11-22T02:31:14;7.47;;;4.50;;
12758;SDS011;20944;47.048;15.390;2023-11-22T02:33:43;5.90;;;4.37;;
12758;SDS011;20944;47.048;15.390;2023-11-22T02:36:11;4.40;;;3.47;;
12758;SDS011;20944;47.048;15.390;2023-11-22T02:38:39;6.37;;;4.17;;
12758;SDS011;20944;47.048;15.390;2023-11-22T02:41:10;9.10;;;4.57;;
12758;SDS011;20944;47.048;15.390;2023-11-22T02:43:40;10.00;;;6.00;;
12758;SDS011;20944;47.048;15.390;2023-11-22T02:46:08;7.93;;;5.17;;
12758;SDS011;20944;47.048;15.390;2023-11-22T02:48:37;9.40;;;6.00;;
12758;SDS011;20944;47.048;15.390;2023-11-22T02:51:05;9.30;;;5.73;;
12758;SDS011;20944;47.048;15.390;2023-11-22T02:53:34;6.93;;;5.37;;
12758;SDS011;20944;47.048;15.390;2023-11-22T02:56:02;9.63;;;6.10;;
12758;SDS011;20944;47.048;15.390;2023-11-22T02:58:33;9.57;;;5.90;;
12758;SDS011;20944;47.048;15.390;2023-11-22T03:01:01;8.83;;;5.77;;
12758;SDS011;20944;47.048;15.390;2023-11-22T03:03:30;14.10;;;7.40;;
12758;SDS011;20944;47.048;15.390;2023-11-22T03:05:58;11.57;;;7.53;;
12758;SDS011;20944;47.048;15.390;2023-11-22T03:08:26;10.83;;;6.60;;
12758;SDS011;20944;47.048;15.390;2023-11-22T03:10:55;11.30;;;6.60;;
12758;SDS011;20944;47.048;15.390;2023-11-22T03:13:23;11.80;;;6.43;;
12758;SDS011;20944;47.048;15.390;2023-11-22T03:15:53;10.67;;;6.70;;
12758;SDS011;20944;47.048;15.390;2023-11-22T03:18:22;11.50;;;5.70;;
12758;SDS011;20944;47.048;15.390;2023-11-22T03:20:50;11.63;;;5.73;;
12758;SDS011;20944;47.048;15.390;2023-11-22T03:23:21;8.60;;;4.87;;
12758;SDS011;20944;47.048;15.390;2023-11-22T03:25:49;9.27;;;5.00;;
12758;SDS011;20944;47.048;15.390;2023-11-22T03:28:17;6.03;;;3.80;;
12758;SDS011;20944;47.048;15.390;2023-11-22T03:30:45;7.03;;;4.53;;
12758;SDS011;20944;47.048;15.390;2023-11-22T03:33:15;6.90;;;4.47;;
12758;SDS011;20944;47.048;15.390;2023-11-22T03:35:43;6.00;;;4.50;;
12758;SDS011;20944;47.048;15.390;2023-11-22T03:38:12;6.67;;;3.93;;
12758;SDS011;20944;47.048;15.390;2023-11-22T03:40:40;5.30;;;4.27;;
12758;SDS011;20944;47.048;15.390;2023-11-22T03:43:08;6.23;;;3.57;;
12758;SDS011;20944;47.048;15.390;2023-11-22T03:45:36;7.23;;;4.47;;
12758;SDS011;20944;47.048;15.390;2023-11-22T03:48:05;7.33;;;4.23;;
12758;SDS011;20944;47.048;15.390;2023-11-22T03:50:34;6.97;;;5.17;;
12758;SDS011;20944;47.048;15.390;2023-11-22T03:53:03;9.00;;;5.23;;
12758;SDS011;20944;47.048;15.390;2023-11-22T03:55:31;8.50;;;4.67;;
12758;SDS011;20944;47.048;15.390;2023-11-22T03:57:59;8.17;;;4.23;;
12758;SDS011;20944;47.048;15.390;2023-11-22T04:00:27;6.80;;;4.70;;
12758;SDS011;20944;47.048;15.390;2023-11-22T04:02:56;6.30;;;4.60;;
12758;SDS011;20944;47.048;15.390;2023-11-22T04:05:26;6.60;;;4.80;;
12758;SDS011;20944;47.048;15.390;2023-11-22T04:07:56;6.83;;;3.73;;
12758;SDS011;20944;47.048;15.390;2023-11-22T04:10:25;7.77;;;5.20;;
12758;SDS011;20944;47.048;15.390;2023-11-22T04:12:53;9.20;;;4.07;;
12758;SDS011;20944;47.048;15.390;2023-11-22T04:15:21;9.13;;;4.43;;
12758;SDS011;20944;47.048;15.390;2023-11-22T04:17:50;6.53;;;3.90;;
12758;SDS011;20944;47.048;15.390;2023-11-22T04:20:21;6.73;;;3.97;;
12758;SDS011;20944;47.048;15.390;2023-11-22T04:22:49;8.60;;;4.10;;
12758;SDS011;20944;47.048;15.390;2023-11-22T04:25:19;6.83;;;3.90;;
12758;SDS011;20944;47.048;15.390;2023-11-22T04:27:47;5.67;;;3.93;;
12758;SDS011;20944;47.048;15.390;2023-11-22T04:30:15;5.60;;;3.17;;
12758;SDS011;20944;47.048;15.390;2023-11-22T04:32:44;5.77;;;3.43;;
12758;SDS011;20944;47.048;15.390;2023-11-22T04:35:13;7.30;;;3.73;;
12758;SDS011;20944;47.048;15.390;2023-11-22T04:37:41;4.53;;;2.97;;
12758;SDS011;20944;47.048;15.390;2023-11-22T04:40:10;5.07;;;3.23;;
12758;SDS011;20944;47.048;15.390;2023-11-22T04:42:42;5.33;;;3.43;;
12758;SDS011;20944;47.048;15.390;2023-11-22T04:45:11;4.53;;;3.23;;
12758;SDS011;20944;47.048;15.390;2023-11-22T04:47:39;5.20;;;2.93;;
12758;SDS011;20944;47.048;15.390;2023-11-22T04:50:08;8.50;;;2.70;;
12758;SDS011;20944;47.048;15.390;2023-11-22T04:52:37;7.40;;;3.33;;
12758;SDS011;20944;47.048;15.390;2023-11-22T04:55:06;4.20;;;3.00;;
12758;SDS011;20944;47.048;15.390;2023-11-22T04:57:35;4.93;;;2.93;;
12758;SDS011;20944;47.048;15.390;2023-11-22T05:00:05;3.30;;;2.70;;
12758;SDS011;20944;47.048;15.390;2023-11-22T05:02:34;4.20;;;2.40;;
12758;SDS011;20944;47.048;15.390;2023-11-22T05:05:03;3.70;;;2.70;;
12758;SDS011;20944;47.048;15.390;2023-11-22T05:07:32;5.10;;;2.33;;
12758;SDS011;20944;47.048;15.390;2023-11-22T05:10:00;8.60;;;2.53;;
12758;SDS011;20944;47.048;15.390;2023-11-22T05:12:29;3.73;;;2.27;;
12758;SDS011;20944;47.048;15.390;2023-11-22T05:14:57;4.80;;;2.60;;
12758;SDS011;20944;47.048;15.390;2023-11-22T05:17:27;3.53;;;2.80;;
12758;SDS011;20944;47.048;15.390;2023-11-22T05:19:55;4.77;;;2.57;;
12758;SDS011;20944;47.048;15.390;2023-11-22T05:22:24;3.87;;;2.23;;
12758;SDS011;20944;47.048;15.390;2023-11-22T05:24:52;3.67;;;2.23;;
12758;SDS011;20944;47.048;15.390;2023-11-22T05:27:20;3.53;;;2.57;;
12758;SDS011;20944;47.048;15.390;2023-11-22T05:29:48;5.10;;;3.43;;
12758;SDS011;20944;47.048;15.390;2023-11-22T05:32:21;12.37;;;3.40;;
12758;SDS011;20944;47.048;15.390;2023-11-22T05:34:50;2.93;;;2.33;;
12758;SDS011;20944;47.048;15.390;2023-11-22T05:37:20;7.63;;;2.87;;
12758;SDS011;20944;47.048;15.390;2023-11-22T05:39:50;7.70;;;3.13;;
12758;SDS011;20944;47.048;15.390;2023-11-22T05:42:18;7.40;;;3.10;;
12758;SDS011;20944;47.048;15.390;2023-11-22T05:44:46;2.30;;;2.10;;
12758;SDS011;20944;47.048;15.390;2023-11-22T05:47:16;3.77;;;2.77;;
12758;SDS011;20944;47.048;15.390;2023-11-22T05:49:45;2.83;;;2.57;;
12758;SDS011;20944;47.048;15.390;2023-11-22T05:52:14;4.27;;;2.73;;
12758;SDS011;20944;47.048;15.390;2023-11-22T05:54:43;4.83;;;2.57;;
12758;SDS011;20944;47.048;15.390;2023-11-22T05:57:11;4.37;;;2.60;;
12758;SDS011;20944;47.048;15.390;2023-11-22T05:59:39;5.10;;;2.50;;
12758;SDS011;20944;47.048;15.390;2023-11-22T06:02:07;5.40;;;2.60;;
12758;SDS011;20944;47.048;15.390;2023-11-22T06:04:36;5.03;;;2.50;;
12758;SDS011;20944;47.048;15.390;2023-11-22T06:07:07;6.97;;;2.80;;
12758;SDS011;20944;47.048;15.390;2023-11-22T06:09:37;3.37;;;2.20;;
12758;SDS011;20944;47.048;15.390;2023-11-22T06:12:06;4.30;;;2.83;;
12758;SDS011;20944;47.048;15.390;2023-11-22T06:14:35;6.73;;;3.40;;
12758;SDS011;20944;47.048;15.390;2023-11-22T06:17:03;5.67;;;2.37;;
12758;SDS011;20944;47.048;15.390;2023-11-22T06:19:31;3.67;;;2.67;;
12758;SDS011;20944;47.048;15.390;2023-11-22T06:22:00;4.90;;;2.70;;
12758;SDS011;20944;47.048;15.390;2023-11-22T06:24:28;3.83;;;2.30;;
12758;SDS011;20944;47.048;15.390;2023-11-22T06:26:59;3.30;;;2.50;;
12758;SDS011;20944;47.048;15.390;2023-11-22T06:29:27;3.63;;;2.73;;
12758;SDS011;20944;47.048;15.390;2023-11-22T06:31:55;3.83;;;2.90;;
12758;SDS011;20944;47.048;15.390;2023-11-22T06:34:24;4.03;;;2.33;;
12758;SDS011;20944;47.048;15.390;2023-11-22T06:36:52;2.47;;;1.90;;
12758;SDS011;20944;47.048;15.390;2023-11-22T06:39:20;4.80;;;2.93;;
12758;SDS011;20944;47.048;15.390;2023-11-22T06:41:50;3.23;;;2.37;;
12758;SDS011;20944;47.048;15.390;2023-11-22T06:44:20;4.27;;;2.47;;
12758;SDS011;20944;47.048;15.390;2023-11-22T06:46:49;4.07;;;2.23;;
12758;SDS011;20944;47.048;15.390;2023-11-22T06:49:17;2.43;;;2.03;;
12758;SDS011;20944;47.048;15.390;2023-11-22T06:51:45;5.70;;;2.40;;
12758;SDS011;20944;47.048;15.390;2023-11-22T06:54:13;3.47;;;2.47;;
12758;SDS011;20944;47.048;15.390;2023-11-22T06:56:41;3.03;;;2.07;;
12758;SDS011;20944;47.048;15.390;2023-11-22T06:59:10;4.17;;;2.57;;
12758;SDS011;20944;47.048;15.390;2023-11-22T07:01:39;3.90;;;2.50;;
12758;SDS011;20944;47.048;15.390;2023-11-22T07:04:08;4.23;;;2.63;;
12758;SDS011;20944;47.048;15.390;2023-11-22T07:06:36;4.43;;;2.60;;
12758;SDS011;20944;47.048;15.390;2023-11-22T07:09:04;4.03;;;2.60;;
12758;SDS011;20944;47.048;15.390;2023-11-22T07:11:36;6.37;;;2.60;;
12758;SDS011;20944;47.048;15.390;2023-11-22T07:14:04;4.23;;;2.50;;
12758;SDS011;20944;47.048;15.390;2023-11-22T07:16:33;4.63;;;2.53;;
12758;SDS011;20944;47.048;15.390;2023-11-22T07:19:02;3.43;;;2.47;;
12758;SDS011;20944;47.048;15.390;2023-11-22T07:21:33;6.20;;;3.73;;
12758;SDS011;20944;47.048;15.390;2023-11-22T07:24:04;5.30;;;3.50;;
12758;SDS011;20944;47.048;15.390;2023-11-22T07:26:34;3.07;;;2.67;;
12758;SDS011;20944;47.048;15.390;2023-11-22T07:29:02;6.13;;;3.13;;
12758;SDS011;20944;47.048;15.390;2023-11-22T07:31:31;9.53;;;2.87;;
12758;SDS011;20944;47.048;15.390;2023-11-22T07:33:59;5.30;;;2.90;;
12758;SDS011;20944;47.048;15.390;2023-11-22T07:36:30;4.80;;;2.97;;
12758;SDS011;20944;47.048;15.390;2023-11-22T07:38:58;4.03;;;3.03;;
12758;SDS011;20944;47.048;15.390;2023-11-22T07:41:29;5.13;;;3.40;;
12758;SDS011;20944;47.048;15.390;2023-11-22T07:43:58;7.30;;;3.60;;
12758;SDS011;20944;47.048;15.390;2023-11-22T07:46:26;6.40;;;3.37;;
12758;SDS011;20944;47.048;15.390;2023-11-22T07:48:54;6.30;;;3.30;;
12758;SDS011;20944;47.048;15.390;2023-11-22T07:51:24;3.97;;;3.37;;
12758;SDS011;20944;47.048;15.390;2023-11-22T07:53:55;6.30;;;3.50;;
12758;SDS011;20944;47.048;15.390;2023-11-22T07:56:24;4.47;;;2.60;;
12758;SDS011;20944;47.048;15.390;2023-11-22T07:58:52;5.37;;;2.87;;
12758;SDS011;20944;47.048;15.390;2023-11-22T08:01:20;4.80;;;3.30;;
12758;SDS011;20944;47.048;15.390;2023-11-22T08:03:48;7.23;;;3.70;;
12758;SDS011;20944;47.048;15.390;2023-11-22T08:06:18;4.97;;;3.07;;
12758;SDS011;20944;47.048;15.390;2023-11-22T08:08:47;5.83;;;3.50;;
12758;SDS011;20944;47.048;15.390;2023-11-22T08:11:17;4.43;;;3.13;;
12758;SDS011;20944;47.048;15.390;2023-11-22T08:13:45;4.47;;;2.70;;
12758;SDS011;20944;47.048;15.390;2023-11-22T08:16:14;5.50;;;3.07;;
12758;SDS011;20944;47.048;15.390;2023-11-22T08:18:42;9.63;;;3.67;;
12758;SDS011;20944;47.048;15.390;2023-11-22T08:21:11;4.70;;;3.53;;
12758;SDS011;20944;47.048;15.390;2023-11-22T08:23:39;5.87;;;3.83;;
12758;SDS011;20944;47.048;15.390;2023-11-22T08:26:07;7.43;;;3.50;;
12758;SDS011;20944;47.048;15.390;2023-11-22T08:28:40;8.37;;;3.93;;
12758;SDS011;20944;47.048;15.390;2023-11-22T08:31:08;5.13;;;3.30;;
12758;SDS011;20944;47.048;15.390;2023-11-22T08:33:37;7.20;;;4.33;;
12758;SDS011;20944;47.048;15.390;2023-11-22T08:36:06;6.80;;;4.27;;
12758;SDS011;20944;47.048;15.390;2023-11-22T08:38:35;4.83;;;4.03;;
12758;SDS011;20944;47.048;15.390;2023-11-22T08:41:07;12.90;;;4.27;;
12758;SDS011;20944;47.048;15.390;2023-11-22T08:43:41;6.40;;;3.80;;
12758;SDS011;20944;47.048;15.390;2023-11-22T08:46:10;6.40;;;3.60;;
12758;SDS011;20944;47.048;15.390;2023-11-22T08:48:40;6.13;;;3.77;;
12758;SDS011;20944;47.048;15.390;2023-11-22T08:51:09;5.30;;;3.67;;
12758;SDS011;20944;47.048;15.390;2023-11-22T08:53:38;7.10;;;3.93;;
12758;SDS011;20944;47.048;15.390;2023-11-22T08:56:07;6.80;;;4.53;;
12758;SDS011;20944;47.048;15.390;2023-11-22T08:58:36;5.57;;;3.40;;
12758;SDS011;20944;47.048;15.390;2023-11-22T09:01:06;4.67;;;3.00;;
12758;SDS011;20944;47.048;15.390;2023-11-22T09:03:35;6.70;;;3.43;;
12758;SDS011;20944;47.048;15.390;2023-11-22T09:06:05;5.00;;;3.20;;
12758;SDS011;20944;47.048;15.390;2023-11-22T09:08:34;6.57;;;3.33;;
12758;SDS011;20944;47.048;15.390;2023-11-22T09:11:03;7.57;;;3.53;;
12758;SDS011;20944;47.048;15.390;2023-11-22T09:13:33;4.57;;;2.37;;
12758;SDS011;20944;47.048;15.390;2023-11-22T09:16:02;6.43;;;2.30;;
12758;SDS011;20944;47.048;15.390;2023-11-22T09:18:33;2.20;;;1.77;;
12758;SDS011;20944;47.048;15.390;2023-11-22T09:21:02;1.63;;;1.20;;
12758;SDS011;20944;47.048;15.390;2023-11-22T09:23:31;2.60;;;1.30;;
12758;SDS011;20944;47.048;15.390;2023-11-22T09:26:00;2.33;;;1.27;;
12758;SDS011;20944;47.048;15.390;2023-11-22T09:28:29;2.70;;;1.53;;
12758;SDS011;20944;47.048;15.390;2023-11-22T09:30:58;2.77;;;1.33;;
12758;SDS011;20944;47.048;15.390;2023-11-22T09:33:34;0.93;;;0.80;;
12758;SDS011;20944;47.048;15.390;2023-11-22T09:36:03;1.63;;;0.97;;
12758;SDS011;20944;47.048;15.390;2023-11-22T09:38:37;1.80;;;0.80;;
12758;SDS011;20944;47.048;15.390;2023-11-22T09:41:05;1.77;;;1.13;;
12758;SDS011;20944;47.048;15.390;2023-11-22T09:43:35;3.20;;;0.93;;
12758;SDS011;20944;47.048;15.390;2023-11-22T09:46:06;2.03;;;1.00;;
12758;SDS011;20944;47.048;15.390;2023-11-22T09:48:40;3.43;;;1.10;;
12758;SDS011;20944;47.048;15.390;2023-11-22T09:51:15;1.50;;;0.97;;
12758;SDS011;20944;47.048;15.390;2023-11-22T09:53:52;1.83;;;1.43;;
12758;SDS011;20944;47.048;15.390;2023-11-22T09:56:25;1.60;;;1.40;;
12758;SDS011;20944;47.048;15.390;2023-11-22T09:58:54;1.10;;;0.80;;
12758;SDS011;20944;47.048;15.390;2023-11-22T10:01:23;0.87;;;0.87;;
12758;SDS011;20944;47.048;15.390;2023-11-22T10:03:55;2.17;;;1.10;;
12758;SDS011;20944;47.048;15.390;2023-11-22T10:06:24;1.30;;;1.17;;
12758;SDS011;20944;47.048;15.390;2023-11-22T10:08:57;1.73;;;1.00;;
12758;SDS011;20944;47.048;15.390;2023-11-22T10:11:25;2.00;;;1.00;;
12758;SDS011;20944;47.048;15.390;2023-11-22T10:13:55;4.27;;;0.87;;
12758;SDS011;20944;47.048;15.390;2023-11-22T10:16:23;1.53;;;1.07;;
12758;SDS011;20944;47.048;15.390;2023-11-22T10:18:51;1.23;;;0.63;;
12758;SDS011;20944;47.048;15.390;2023-11-22T10:21:22;7.40;;;1.13;;
12758;SDS011;20944;47.048;15.390;2023-11-22T10:23:53;1.27;;;0.73;;
12758;SDS011;20944;47.048;15.390;2023-11-22T10:26:23;1.17;;;0.80;;
12758;SDS011;20944;47.048;15.390;2023-11-22T10:28:54;1.73;;;0.87;;
12758;SDS011;20944;47.048;15.390;2023-11-22T10:31:23;1.50;;;1.03;;
12758;SDS011;20944;47.048;15.390;2023-11-22T10:33:52;1.43;;;1.03;;
12758;SDS011;20944;47.048;15.390;2023-11-22T10:36:23;1.53;;;1.10;;
12758;SDS011;20944;47.048;15.390;2023-11-22T10:38:52;2.03;;;0.70;;
12758;SDS011;20944;47.048;15.390;2023-11-22T10:41:22;0.60;;;0.60;;
12758;SDS011;20944;47.048;15.390;2023-11-22T10:43:50;1.80;;;0.90;;
12758;SDS011;20944;47.048;15.390;2023-11-22T10:46:20;4.83;;;0.90;;
12758;SDS011;20944;47.048;15.390;2023-11-22T10:48:55;2.47;;;0.90;;
12758;SDS011;20944;47.048;15.390;2023-11-22T10:51:28;1.17;;;0.73;;
12758;SDS011;20944;47.048;15.390;2023-11-22T10:53:59;1.37;;;0.90;;
12758;SDS011;20944;47.048;15.390;2023-11-22T10:56:33;1.67;;;1.00;;
12758;SDS011;20944;47.048;15.390;2023-11-22T10:59:08;1.23;;;0.70;;
12758;SDS011;20944;47.048;15.390;2023-11-22T11:01:42;4.83;;;0.93;;
12758;SDS011;20944;47.048;15.390;2023-11-22T11:04:19;1.40;;;0.93;;
12758;SDS011;20944;47.048;15.390;2023-11-22T11:06:54;1.83;;;0.90;;
12758;SDS011;20944;47.048;15.390;2023-11-22T11:09:27;1.90;;;0.90;;
12758;SDS011;20944;47.048;15.390;2023-11-22T11:11:59;1.60;;;1.07;;
12758;SDS011;20944;47.048;15.390;2023-11-22T11:14:34;2.93;;;1.10;;
12758;SDS011;20944;47.048;15.390;2023-11-22T11:17:03;1.37;;;0.93;;
12758;SDS011;20944;47.048;15.390;2023-11-22T11:19:32;2.33;;;1.00;;
12758;SDS011;20944;47.048;15.390;2023-11-22T11:22:03;0.97;;;0.83;;
12758;SDS011;20944;47.048;15.390;2023-11-22T11:24:39;4.83;;;1.00;;
12758;SDS011;20944;47.048;15.390;2023-11-22T11:27:11;1.00;;;0.90;;
12758;SDS011;20944;47.048;15.390;2023-11-22T11:29:39;3.43;;;0.90;;
12758;SDS011;20944;47.048;15.390;2023-11-22T11:32:10;0.80;;;0.80;;
12758;SDS011;20944;47.048;15.390;2023-11-22T11:34:47;2.70;;;1.37;;
12758;SDS011;20944;47.048;15.390;2023-11-22T11:37:19;3.27;;;1.10;;
12758;SDS011;20944;47.048;15.390;2023-11-22T11:39:47;1.37;;;0.70;;
12758;SDS011;20944;47.048;15.390;2023-11-22T11:42:16;1.10;;;0.70;;
12758;SDS011;20944;47.048;15.390;2023-11-22T11:44:51;1.00;;;0.83;;
12758;SDS011;20944;47.048;15.390;2023-11-22T11:47:34;2.43;;;1.20;;
12758;SDS011;20944;47.048;15.390;2023-11-22T11:50:03;0.90;;;0.67;;
12758;SDS011;20944;47.048;15.390;2023-11-22T11:52:33;1.20;;;0.80;;
12758;SDS011;20944;47.048;15.390;2023-11-22T11:55:02;3.47;;;1.10;;
12758;SDS011;20944;47.048;15.390;2023-11-22T11:57:31;1.60;;;1.13;;
12758;SDS011;20944;47.048;15.390;2023-11-22T12:00:00;0.87;;;0.83;;
12758;SDS011;20944;47.048;15.390;2023-11-22T12:02:30;1.67;;;0.90;;
12758;SDS011;20944;47.048;15.390;2023-11-22T12:04:58;1.53;;;0.90;;
12758;SDS011;20944;47.048;15.390;2023-11-22T12:07:27;1.17;;;0.90;;
12758;SDS011;20944;47.048;15.390;2023-11-22T12:09:57;0.87;;;0.87;;
12758;SDS011;20944;47.048;15.390;2023-11-22T12:12:26;1.13;;;0.90;;
12758;SDS011;20944;47.048;15.390;2023-11-22T12:14:55;1.07;;;0.87;;
12758;SDS011;20944;47.048;15.390;2023-11-22T12:17:24;1.00;;;0.90;;
12758;SDS011;20944;47.048;15.390;2023-11-22T12:19:53;0.60;;;0.60;;
12758;SDS011;20944;47.048;15.390;2023-11-22T12:22:37;0.83;;;0.83;;
12758;SDS011;20944;47.048;15.390;2023-11-22T12:25:07;1.50;;;0.70;;
12758;SDS011;20944;47.048;15.390;2023-11-22T12:27:38;1.23;;;1.00;;
12758;SDS011;20944;47.048;15.390;2023-11-22T12:30:08;1.10;;;0.63;;
12758;SDS011;20944;47.048;15.390;2023-11-22T12:32:38;1.07;;;0.90;;
12758;SDS011;20944;47.048;15.390;2023-11-22T12:35:09;1.13;;;0.90;;
12758;SDS011;20944;47.048;15.390;2023-11-22T12:37:38;0.70;;;0.70;;
12758;SDS011;20944;47.048;15.390;2023-11-22T12:40:09;0.60;;;0.60;;
12758;SDS011;20944;47.048;15.390;2023-11-22T12:42:48;1.73;;;0.90;;
12758;SDS011;20944;47.048;15.390;2023-11-22T12:45:20;1.60;;;1.00;;
12758;SDS011;20944;47.048;15.390;2023-11-22T12:47:50;1.13;;;0.80;;
12758;SDS011;20944;47.048;15.390;2023-11-22T12:50:28;2.57;;;1.00;;
12758;SDS011;20944;47.048;15.390;2023-11-22T12:52:58;1.70;;;1.00;;
12758;SDS011;20944;47.048;15.390;2023-11-22T12:55:28;1.43;;;0.93;;
12758;SDS011;20944;47.048;15.390;2023-11-22T12:57:57;2.07;;;1.23;;
12758;SDS011;20944;47.048;15.390;2023-11-22T13:00:28;1.13;;;0.90;;
12758;SDS011;20944;47.048;15.390;2023-11-22T13:02:57;2.40;;;0.83;;
12758;SDS011;20944;47.048;15.390;2023-11-22T13:05:29;3.73;;;0.80;;
12758;SDS011;20944;47.048;15.390;2023-11-22T13:07:58;1.87;;;0.70;;
12758;SDS011;20944;47.048;15.390;2023-11-22T13:10:29;1.03;;;0.83;;
12758;SDS011;20944;47.048;15.390;2023-11-22T13:12:58;0.83;;;0.83;;
12758;SDS011;20944;47.048;15.390;2023-11-22T13:15:27;2.58;;;0.93;;
12758;SDS011;20944;47.048;15.390;2023-11-22T13:17:56;0.60;;;0.50;;
12758;SDS011;20944;47.048;15.390;2023-11-22T13:20:25;0.80;;;0.80;;
12758;SDS011;20944;47.048;15.390;2023-11-22T13:22:54;0.95;;;0.90;;
12758;SDS011;20944;47.048;15.390;2023-11-22T13:25:24;0.90;;;0.80;;
12758;SDS011;20944;47.048;15.390;2023-11-22T13:27:53;7.22;;;0.90;;
12758;SDS011;20944;47.048;15.390;2023-11-22T13:30:23;1.20;;;1.10;;
12758;SDS011;20944;47.048;15.390;2023-11-22T13:32:51;2.88;;;0.73;;
12758;SDS011;20944;47.048;15.390;2023-11-22T13:35:20;0.80;;;0.70;;
12758;SDS011;20944;47.048;15.390;2023-11-22T13:37:48;0.90;;;0.90;;
12758;SDS011;20944;47.048;15.390;2023-11-22T13:40:17;1.10;;;0.85;;
12758;SDS011;20944;47.048;15.390;2023-11-22T13:42:49;1.85;;;0.80;;
12758;SDS011;20944;47.048;15.390;2023-11-22T13:45:20;0.90;;;0.90;;
12758;SDS011;20944;47.048;15.390;2023-11-22T13:47:49;1.58;;;0.77;;
12758;SDS011;20944;47.048;15.390;2023-11-22T13:50:20;0.80;;;0.80;;
12758;SDS011;20944;47.048;15.390;2023-11-22T13:52:50;1.90;;;0.70;;
12758;SDS011;20944;47.048;15.390;2023-11-22T13:55:19;1.57;;;0.87;;
12758;SDS011;20944;47.048;15.390;2023-11-22T13:57:50;0.87;;;0.60;;
12758;SDS011;20944;47.048;15.390;2023-11-22T14:00:19;1.90;;;1.70;;
12758;SDS011;20944;47.048;15.390;2023-11-22T14:02:51;1.67;;;0.87;;
12758;SDS011;20944;47.048;15.390;2023-11-22T14:05:22;1.00;;;0.80;;
12758;SDS011;20944;47.048;15.390;2023-11-22T14:07:51;1.30;;;0.60;;
12758;SDS011;20944;47.048;15.390;2023-11-22T14:10:19;1.13;;;0.63;;
12758;SDS011;20944;47.048;15.390;2023-11-22T14:12:48;0.87;;;0.70;;
12758;SDS011;20944;47.048;15.390;2023-11-22T14:15:17;1.90;;;0.87;;
12758;SDS011;20944;47.048;15.390;2023-11-22T14:17:47;1.77;;;0.90;;
12758;SDS011;20944;47.048;15.390;2023-11-22T14:20:18;2.93;;;0.70;;
12758;SDS011;20944;47.048;15.390;2023-11-22T14:22:47;0.80;;;0.80;;
12758;SDS011;20944;47.048;15.390;2023-11-22T14:25:16;1.33;;;0.80;;
12758;SDS011;20944;47.048;15.390;2023-11-22T14:27:44;2.70;;;0.73;;
12758;SDS011;20944;47.048;15.390;2023-11-22T14:30:15;3.43;;;0.83;;
12758;SDS011;20944;47.048;15.390;2023-11-22T14:32:44;0.77;;;0.70;;
12758;SDS011;20944;47.048;15.390;2023-11-22T14:35:13;1.47;;;0.87;;
12758;SDS011;20944;47.048;15.390;2023-11-22T14:37:42;1.97;;;1.07;;
12758;SDS011;20944;47.048;15.390;2023-11-22T14:40:11;1.80;;;0.57;;
12758;SDS011;20944;47.048;15.390;2023-11-22T14:42:40;1.00;;;0.67;;
12758;SDS011;20944;47.048;15.390;2023-11-22T14:45:09;3.57;;;1.50;;
12758;SDS011;20944;47.048;15.390;2023-11-22T14:47:56;2.93;;;1.77;;